KBUR/BUR METAR and TAF weather

Enter ICAO airport designator
Station Type Date Time Source
KBUR METAR 2018/12/10 17:53 UTC NOAA

KBUR 101753Z 09005KT 8SM CLR 16/06 A3011 RMK AO2 SLP188 T01610061 10167 20106 51004


Station Type Date Time Source
KBUR Decoded METAR 2018/12/10 17:53 UTC NOAA

BURBANK-GLENDALE-PASADENA, CA, United States (KBUR) 34-12N 118-22W 217M
Dec 10, 2018 - 12:53 PM EST / 2018.12.10 1753 UTC
Wind: from the E (090 degrees) at 6 MPH (5 KT):0
Visibility: 8 mile(s):0
Sky conditions: clear
Temperature: 61.0 F (16.1 C)
Dew Point: 43.0 F (6.1 C)
Relative Humidity: 51%
Pressure (altimeter): 30.11 in. Hg (1019 hPa)
Pressure tendency: 0.01 inches (0.4 hPa) higher than three hours ago
ob: KBUR 101753Z 09005KT 8SM CLR 16/06 A3011 RMK AO2 SLP188 T01610061 10167 20106 51004
cycle: 18

Station Type Date Time Source
KBUR TAF 2018/12/10 18:45 UTC NOAA

TAF KBUR 101742Z 1018/1118 22005KT P6SM BKN250
FM102100 18006KT P6SM BKN250
FM110400 VRB03KT P6SM SCT250
FM111600 14005KT P6SM SCT250


Example: see airport list